Kensington, New Hampshire
Current Conditions -  °F | °C
As of 10:58 AM on Wednesday 22 Oct 2014 (Local Time) from KPSM Reporting Station
Light Rain Light Rain  
Wind Chill: 44°   Ceiling: 400
Heat Index: 50°   Visibility: 2mi
Dew Point: 47°   Wind: 14mph
Humidity: 92%   Direction: 20°NNE
Pressure: 30.05"   Gusts: NA
Location:  42.9832°N, 70.9915°W
Report Text: KPSM 221458Z 02012KT 2SM -RA BR OVC004 10/09 A3005 RMK AO2A SLP180 P0002 60004 T00980086 50002
Loading
Personal Weather Stations






























Interactive Weather Map
Tropical Storm Tracking
New forecast layout! Learn more

10-Day Weather Forecast

Advertisements
Track Severe Weather on mobile